| time (UTC) | temp F | wind direction | speed MPH | gust MPH | rain 1hr in | rain 24hr in | rain mn in | humidity % | barometer mb |
| 20260902090024 | 71 | 338 | 0.0 | 0.0 | 0.00 | 0.00 | 0.00 | 59 | 1022.1 |
| 20260902084518 | 70 | 337 | 0.0 | 0.0 | 0.00 | 0.00 | 0.00 | 62 | 1021.9 |
| 20260902083051 | 69 | 337 | 0.0 | 0.0 | 0.00 | 0.00 | 0.00 | 66 | 1021.9 |
| 20260902081512 | 66 | 337 | 0.0 | 0.0 | 0.00 | 0.00 | 0.00 | 72 | 1021.8 |
| 20260902080010 | 64 | 337 | 1.0 | 2.0 | 0.00 | 0.00 | 0.00 | 77 | 1021.8 |
| 20260902074508 | 62 | 337 | 1.0 | 4.0 | 0.00 | 0.00 | 0.00 | 81 | 1021.7 |
| 20260902073006 | 60 | 336 | 2.0 | 4.0 | 0.00 | 0.00 | 0.00 | 83 | 1021.4 |
| 20260902071507 | 59 | 334 | 2.0 | 3.0 | 0.00 | 0.00 | 0.00 | 85 | 1021.5 |
| 20260902070008 | 57 | 334 | 0.0 | 2.0 | 0.00 | 0.00 | 0.00 | 88 | 1021.4 |
| 20260902064509 | 56 | 334 | 0.0 | 2.0 | 0.00 | 0.00 | 0.00 | 88 | 1021.3 |
| 20260902063013 | 55 | 334 | 0.0 | 3.0 | 0.00 | 0.00 | 0.00 | 89 | 1021.1 |
| 20260902061550 | 54 | 334 | 1.0 | 3.0 | 0.00 | 0.00 | 0.00 | 89 | 1021.1 |
| 20260902060037 | 54 | 334 | 2.0 | 3.0 | 0.00 | 0.00 | 0.00 | 88 | 1021.1 |
| 20260902054531 | 54 | 333 | 0.0 | 3.0 | 0.00 | 0.00 | 0.00 | 88 | 1021.1 |
| 20260902053029 | 54 | 332 | 1.0 | 2.0 | 0.00 | 0.00 | 0.00 | 88 | 1021.1 |
| 20260902051527 | 54 | 331 | 2.0 | 4.0 | 0.00 | 0.00 | 0.00 | 87 | 1021.1 |
| 20260902050022 | 54 | 331 | 1.0 | 3.0 | 0.00 | 0.00 | 0.00 | 87 | 1020.9 |
| 20260902044536 | 54 | 331 | 0.0 | 0.0 | 0.00 | 0.00 | 0.00 | 86 | 1021.0 |
| 20260902043015 | 54 | 331 | 0.0 | 0.0 | 0.00 | 0.00 | 0.00 | 86 | 1020.9 |
| 20260902041515 | 55 | 331 | 0.0 | 2.0 | 0.00 | 0.00 | 0.00 | 85 | 1020.8 |
| 20260902040016 | 55 | 331 | 0.0 | 1.0 | 0.00 | 0.00 | 0.00 | 85 | 1020.8 |
| 20260902034513 | 55 | 331 | 0.0 | 1.0 | 0.00 | 0.00 | 0.00 | 85 | 1020.9 |
| 20260902033010 | 55 | 331 | 0.0 | 0.0 | 0.00 | 0.00 | 0.00 | 84 | 1020.9 |
| 20260902031526 | 55 | 331 | 0.0 | 1.0 | 0.00 | 0.00 | 0.00 | 84 | 1020.9 |
| 20260902030008 | 55 | 331 | 0.0 | 1.0 | 0.00 | 0.00 | 0.00 | 83 | 1021.1 |
| 20260902024506 | 56 | 331 | 1.0 | 3.0 | 0.00 | 0.00 | 0.00 | 83 | 1021.0 |
| 20260902023014 | 56 | 331 | 0.0 | 4.0 | 0.00 | 0.00 | 0.00 | 83 | 1021.0 |
| 20260902021506 | 56 | 331 | 1.0 | 3.0 | 0.00 | 0.00 | 0.00 | 83 | 1020.9 |
| 20260902020005 | 56 | 331 | 1.0 | 4.0 | 0.00 | 0.00 | 0.00 | 82 | 1021.0 |
| 20260902014504 | 56 | 331 | 2.0 | 4.0 | 0.00 | 0.00 | 0.00 | 82 | 1020.9 |
| 20260902013003 | 56 | 331 | 1.0 | 5.0 | 0.00 | 0.00 | 0.00 | 82 | 1020.9 |
| 20260902011504 | 57 | 331 | 1.0 | 3.0 | 0.00 | 0.00 | 0.00 | 81 | 1020.9 |
| 20260902010106 | 57 | 331 | 0.0 | 0.0 | 0.00 | 0.00 | 0.00 | 80 | 1021.0 |
| 20260902004519 | 57 | 331 | 0.0 | 0.0 | 0.00 | 0.00 | 0.00 | 80 | 1021.0 |
| 20260902003017 | 57 | 331 | 0.0 | 3.0 | 0.00 | 0.00 | 0.00 | 80 | 1021.2 |
| 20260902001515 | 57 | 331 | 2.0 | 3.0 | 0.00 | 0.00 | 0.00 | 80 | 1021.4 |
| 20260902000014 | 58 | 331 | 2.0 | 4.0 | 0.00 | 0.00 | 0.00 | 79 | 1021.2 |
| 20260901234514 | 58 | 331 | 3.0 | 5.0 | 0.00 | 0.00 | 0.00 | 79 | 1021.2 |
| 20260901233014 | 58 | 331 | 2.0 | 4.0 | 0.00 | 0.00 | 0.00 | 78 | 1021.2 |
| 20260901231514 | 59 | 329 | 3.0 | 4.0 | 0.00 | 0.00 | 0.00 | 78 | 1021.2 |
| 20260901230008 | 59 | 329 | 1.0 | 3.0 | 0.00 | 0.00 | 0.00 | 77 | 1021.4 |
| 20260901224510 | 59 | 329 | 2.0 | 5.0 | 0.00 | 0.00 | 0.00 | 76 | 1021.4 |
| 20260901223005 | 60 | 329 | 2.0 | 5.0 | 0.00 | 0.00 | 0.00 | 75 | 1021.3 |
| 20260901221504 | 60 | 329 | 1.0 | 4.0 | 0.00 | 0.00 | 0.00 | 74 | 1021.2 |
| 20260901220004 | 60 | 329 | 1.0 | 5.0 | 0.00 | 0.00 | 0.00 | 73 | 1021.2 |
| 20260901214519 | 60 | 327 | 2.0 | 5.0 | 0.00 | 0.00 | 0.00 | 72 | 1021.3 |
| 20260901213026 | 61 | 328 | 2.0 | 5.0 | 0.00 | 0.00 | 0.00 | 70 | 1021.2 |
| 20260901211516 | 62 | 328 | 2.0 | 4.0 | 0.00 | 0.00 | 0.00 | 69 | 1021.3 |
| 20260901210014 | 62 | 327 | 2.0 | 4.0 | 0.00 | 0.00 | 0.00 | 68 | 1021.3 |
| 20260901204516 | 63 | 327 | 1.0 | 3.0 | 0.00 | 0.00 | 0.00 | 68 | 1021.3 |
| 20260901203009 | 63 | 327 | 1.0 | 3.0 | 0.00 | 0.00 | 0.00 | 67 | 1021.0 |
| 20260901201506 | 64 | 327 | 1.0 | 4.0 | 0.00 | 0.00 | 0.00 | 66 | 1021.0 |
| 20260901200004 | 64 | 327 | 2.0 | 3.0 | 0.00 | 0.00 | 0.00 | 65 | 1021.0 |
| 20260901194607 | 65 | 327 | 2.0 | 4.0 | 0.00 | 0.00 | 0.00 | 64 | 1020.8 |
| 20260901193104 | 66 | 321 | 3.0 | 5.0 | 0.00 | 0.00 | 0.00 | 63 | 1020.7 |
| 20260901191518 | 67 | 313 | 1.0 | 4.0 | 0.00 | 0.00 | 0.00 | 61 | 1020.5 |
| 20260901190023 | 68 | 312 | 1.0 | 5.0 | 0.00 | 0.00 | 0.00 | 59 | 1020.4 |
| 20260901184518 | 68 | 304 | 2.0 | 4.0 | 0.00 | 0.00 | 0.00 | 58 | 1020.1 |
| 20260901183022 | 70 | 299 | 1.0 | 4.0 | 0.00 | 0.00 | 0.00 | 57 | 1020.1 |
| 20260901181514 | 70 | 299 | 2.0 | 4.0 | 0.00 | 0.00 | 0.00 | 55 | 1020.0 |
| 20260901180014 | 71 | 297 | 2.0 | 7.0 | 0.00 | 0.00 | 0.00 | 52 | 1020.1 |
| 20260901174506 | 73 | 282 | 2.0 | 6.0 | 0.00 | 0.00 | 0.00 | 49 | 1020.1 |
| 20260901173004 | 74 | 275 | 2.0 | 6.0 | 0.00 | 0.00 | 0.00 | 47 | 1020.1 |
| 20260901171502 | 75 | 273 | 4.0 | 8.0 | 0.00 | 0.00 | 0.00 | 46 | 1020.2 |
| 20260901170003 | 75 | 279 | 2.0 | 6.0 | 0.00 | 0.00 | 0.00 | 46 | 1020.4 |
| 20260901164503 | 75 | 254 | 1.0 | 7.0 | 0.00 | 0.00 | 0.00 | 46 | 1020.4 |
| 20260901163016 | 75 | 248 | 0.0 | 8.0 | 0.00 | 0.00 | 0.00 | 47 | 1020.3 |
| 20260901161605 | 75 | 237 | 2.0 | 9.0 | 0.00 | 0.00 | 0.00 | 47 | 1020.4 |
| 20260901160010 | 75 | 292 | 2.0 | 10.0 | 0.00 | 0.00 | 0.00 | 46 | 1020.4 |
| 20260901154504 | 75 | 271 | 3.0 | 9.0 | 0.00 | 0.00 | 0.00 | 47 | 1020.4 |
| 20260901153103 | 75 | 248 | 4.0 | 9.0 | 0.00 | 0.00 | 0.00 | 46 | 1020.4 |
| 20260901151518 | 75 | 261 | 1.0 | 9.0 | 0.00 | 0.00 | 0.00 | 46 | 1020.3 |
| 20260901150017 | 76 | 269 | 3.0 | 7.0 | 0.00 | 0.00 | 0.00 | 45 | 1020.3 |
| 20260901144551 | 74 | 250 | 4.0 | 11.0 | 0.00 | 0.00 | 0.00 | 48 | 1020.5 |
| 20260901143013 | 74 | 304 | 3.0 | 10.0 | 0.00 | 0.00 | 0.00 | 47 | 1020.4 |
| 20260901141512 | 75 | 317 | 2.0 | 6.0 | 0.00 | 0.00 | 0.00 | 46 | 1020.5 |
| 20260901140010 | 75 | 238 | 4.0 | 10.0 | 0.00 | 0.00 | 0.00 | 47 | 1020.6 |
| 20260901134513 | 75 | 229 | 2.0 | 9.0 | 0.00 | 0.00 | 0.00 | 47 | 1020.7 |
| 20260901133013 | 74 | 280 | 2.0 | 10.0 | 0.00 | 0.00 | 0.00 | 48 | 1020.7 |
| 20260901131512 | 72 | 302 | 4.0 | 9.0 | 0.00 | 0.00 | 0.00 | 51 | 1020.9 |
| 20260901130011 | 73 | 293 | 5.0 | 10.0 | 0.00 | 0.00 | 0.00 | 51 | 1021.0 |
| 20260901124506 | 74 | 302 | 4.0 | 11.0 | 0.00 | 0.00 | 0.00 | 50 | 1021.3 |
| 20260901123003 | 73 | 304 | 1.0 | 8.0 | 0.00 | 0.00 | 0.00 | 50 | 1021.4 |
| 20260901121605 | 72 | 153 | 4.0 | 9.0 | 0.00 | 0.00 | 0.00 | 52 | 1021.6 |
| 20260901120022 | 71 | 313 | 4.0 | 11.0 | 0.00 | 0.00 | 0.00 | 52 | 1021.4 |
| 20260901114517 | 71 | 230 | 4.0 | 8.0 | 0.00 | 0.00 | 0.00 | 53 | 1021.7 |
| 20260901113019 | 71 | 276 | 3.0 | 11.0 | 0.00 | 0.00 | 0.00 | 51 | 1021.6 |
| 20260901111516 | 71 | 269 | 3.0 | 12.0 | 0.00 | 0.00 | 0.00 | 53 | 1021.7 |
| 20260901110014 | 70 | 249 | 5.0 | 13.0 | 0.00 | 0.00 | 0.00 | 51 | 1021.7 |
| 20260901104512 | 70 | 285 | 3.0 | 9.0 | 0.00 | 0.00 | 0.00 | 54 | 1021.9 |
| 20260901103014 | 70 | 228 | 7.0 | 13.0 | 0.00 | 0.00 | 0.00 | 57 | 1022.0 |
| 20260901101512 | 70 | 216 | 4.0 | 11.0 | 0.00 | 0.00 | 0.00 | 57 | 1022.0 |
| 20260901100008 | 69 | 277 | 2.0 | 10.0 | 0.00 | 0.00 | 0.00 | 61 | 1022.1 |
| 20260901094506 | 69 | 298 | 4.0 | 10.0 | 0.00 | 0.00 | 0.00 | 60 | 1022.2 |
| 20260901093005 | 67 | 292 | 3.0 | 9.0 | 0.00 | 0.00 | 0.00 | 62 | 1022.2 |
| 20260901091505 | 67 | 297 | 3.0 | 8.0 | 0.00 | 0.00 | 0.00 | 62 | 1022.0 |